Time;durP1;ratioP1;P1;durP2;ratioP2;P2;SDS_P1;SDS_P2;PMS_P1;PMS_P2;Temp;Humidity;BMP_temperature;BMP_pressure;BME280_temperature;BME280_humidity;BME280_pressure;Samples;Min_cycle;Max_cycle;Signal;HPM_P1;HPM_P2
2021/12/04 00:01:09;;;;;;;79.07;61.25;;;;;;;2.70;100.00;99936.31;4963751;28;20027;-87
2021/12/04 00:03:35;;;;;;;78.15;62.33;;;;;;;2.71;100.00;99935.47;4946263;29;20019;-88
2021/12/04 00:06:06;;;;;;;85.77;62.70;;;;;;;2.59;100.00;99916.06;4952040;29;20038;-88
2021/12/04 00:08:35;;;;;;;81.05;63.70;;;;;;;2.52;100.00;99910.22;4952484;28;20261;-86
2021/12/04 00:11:06;;;;;;;82.70;61.67;;;;;;;2.73;100.00;99926.94;4947548;29;20066;-89
2021/12/04 00:13:32;;;;;;;78.97;62.78;;;;;;;2.74;100.00;99927.81;4963745;29;20558;-87
2021/12/04 00:15:57;;;;;;;86.10;62.87;;;;;;;2.66;100.00;99904.19;4972639;29;20042;-87
2021/12/04 00:18:23;;;;;;;83.67;62.40;;;;;;;2.59;100.00;99911.00;4957266;29;20272;-87
2021/12/04 00:20:48;;;;;;;121.57;71.57;;;;;;;2.68;100.00;99918.53;4972719;23;20162;-87
2021/12/04 00:23:14;;;;;;;79.67;61.27;;;;;;;2.65;100.00;99908.41;4955775;28;20058;-85
2021/12/04 00:25:39;;;;;;;79.77;62.33;;;;;;;2.70;100.00;99914.31;4959744;28;20034;-85
2021/12/04 00:28:06;;;;;;;93.43;65.63;;;;;;;2.73;100.00;99919.31;4964135;28;20027;-82
2021/12/04 00:30:31;;;;;;;;;;;;;;;2.72;100.00;99917.66;4967023;28;20026;-82
2021/12/04 00:33:15;;;;;;;88.25;64.15;;;;;;;2.73;100.00;99915.97;4969839;28;19922;-83
2021/12/04 00:35:46;;;;;;;85.75;62.67;;;;;;;2.71;100.00;99921.06;4973755;28;20027;-85
2021/12/04 00:43:23;;;;;;;93.22;66.28;;;;;;;2.70;100.00;99913.44;4969931;28;20550;-87
2021/12/04 00:49:13;;;;;;;92.03;65.53;;;;;;;2.57;100.00;99891.56;4986271;28;20046;-84
2021/12/04 00:51:46;;;;;;;84.07;65.80;;;;;;;2.63;100.00;99889.81;4998073;28;20086;-83
2021/12/04 00:54:12;;;;;;;91.88;64.40;;;;;;;2.53;100.00;99880.63;4965238;28;20050;-88
2021/12/04 00:56:42;;;;;;;89.22;65.20;;;;;;;2.59;100.00;99880.53;4982332;28;20026;-88
2021/12/04 00:59:08;;;;;;;88.20;65.05;;;;;;;2.81;100.00;99915.88;4979301;28;20061;-87
2021/12/04 01:01:33;;;;;;;89.13;64.70;;;;;;;2.77;100.00;99917.63;4977712;28;20026;-87
2021/12/04 01:03:59;;;;;;;86.60;64.83;;;;;;;2.73;100.00;99915.97;4983497;28;20022;-87
2021/12/04 01:06:24;;;;;;;90.63;64.43;;;;;;;2.57;100.00;99882.25;4985341;28;20040;-89
2021/12/04 01:08:50;;;;;;;93.17;66.80;;;;;;;2.66;100.00;99897.41;4984748;28;20548;-88
2021/12/04 01:11:17;;;;;;;93.17;65.37;;;;;;;2.67;100.00;99904.19;4972244;28;20041;-88
2021/12/04 01:13:43;;;;;;;93.88;66.82;;;;;;;2.36;100.00;99848.59;4996838;28;20019;-87
2021/12/04 01:16:11;;;;;;;93.43;65.82;;;;;;;2.69;100.00;99901.63;4980660;28;20065;-86
2021/12/04 01:18:36;;;;;;;84.30;63.53;;;;;;;2.78;100.00;99910.84;4985567;28;20033;-87
2021/12/04 01:21:02;;;;;;;83.15;64.30;;;;;;;2.84;100.00;99920.94;4972555;28;20015;-87
2021/12/04 01:23:27;;;;;;;87.60;62.20;;;;;;;2.87;100.00;99914.13;4995806;28;20041;-87
2021/12/04 01:25:55;;;;;;;86.37;64.67;;;;;;;2.77;100.00;99925.25;4998949;28;20034;-87
2021/12/04 01:28:20;;;;;;;84.55;63.20;;;;;;;2.75;100.00;99915.94;4966207;28;20014;-87
2021/12/04 01:30:46;;;;;;;85.37;63.40;;;;;;;2.81;100.00;99926.03;4982752;28;20115;-88
2021/12/04 01:33:11;;;;;;;81.83;63.47;;;;;;;2.79;100.00;99917.59;4964991;28;20025;-88
2021/12/04 01:35:37;;;;;;;83.27;63.30;;;;;;;2.73;100.00;99913.41;4988838;28;20023;-88
2021/12/04 01:38:02;;;;;;;84.80;63.30;;;;;;;2.53;100.00;99881.44;4998479;28;20033;-88
2021/12/04 01:40:27;;;;;;;84.47;62.30;;;;;;;2.79;100.00;99926.06;4973602;28;20026;-87
2021/12/04 01:42:53;;;;;;;85.23;62.50;;;;;;;2.71;100.00;99910.06;4983659;28;20022;-86
2021/12/04 01:45:19;;;;;;;80.67;61.33;;;;;;;2.73;100.00;99919.31;4977007;28;20011;-87
2021/12/04 01:47:44;;;;;;;78.55;62.78;;;;;;;2.81;100.00;99924.34;4979946;28;20029;-87
2021/12/04 01:50:10;;;;;;;82.90;63.17;;;;;;;2.70;100.00;99904.16;4983690;28;20082;-86
2021/12/04 01:52:36;;;;;;;83.00;62.43;;;;;;;2.69;100.00;99902.47;4969667;28;20050;-88
2021/12/04 01:55:02;;;;;;;80.10;62.85;;;;;;;2.85;100.00;99932.78;4969042;28;20039;-86
2021/12/04 01:57:27;;;;;;;79.57;61.70;;;;;;;2.78;100.00;99911.66;4987070;28;20014;-88
2021/12/04 01:59:53;;;;;;;87.68;63.45;;;;;;;2.80;100.00;99921.81;4986366;28;20137;-88
2021/12/04 02:02:19;;;;;;;79.13;61.22;;;;;;;2.94;100.00;99930.13;4986734;28;20014;-88
2021/12/04 02:04:44;;;;;;;93.43;63.67;;;;;;;2.75;100.00;99900.72;4967258;28;20070;-86
2021/12/04 02:07:12;;;;;;;85.53;63.38;;;;;;;2.89;100.00;99931.88;4984367;28;20011;-86
2021/12/04 02:09:37;;;;;;;78.20;61.72;;;;;;;2.75;100.00;99909.16;4986124;28;20042;-86
2021/12/04 02:12:05;;;;;;;80.30;63.67;;;;;;;2.86;100.00;99929.38;4996836;28;20026;-86
2021/12/04 02:14:31;;;;;;;85.35;63.78;;;;;;;2.81;100.00;99921.81;4978444;28;20089;-86
2021/12/04 02:16:57;;;;;;;81.63;62.08;;;;;;;2.77;100.00;99922.72;4989786;28;20023;-87
2021/12/04 02:19:22;;;;;;;82.13;61.70;;;;;;;2.90;100.00;99931.03;4977733;28;20074;-87
2021/12/04 02:21:48;;;;;;;81.10;62.13;;;;;;;2.86;100.00;99922.63;4975562;28;20039;-87
2021/12/04 02:24:25;;;;;;;80.03;63.40;;;;;;;2.82;100.00;99922.66;4972637;28;20041;-87
2021/12/04 02:26:50;;;;;;;85.95;63.35;;;;;;;2.79;100.00;99915.91;4960084;28;20030;-87
2021/12/04 02:29:17;;;;;;;74.03;60.50;;;;;;;2.83;100.00;99921.78;4968383;28;20053;-88
2021/12/04 02:31:47;;;;;;;84.97;61.53;;;;;;;2.85;100.00;99917.56;4993473;28;20090;-88
2021/12/04 02:34:37;;;;;;;90.68;63.65;;;;;;;2.71;100.00;99885.50;4980049;28;20018;-88
2021/12/04 02:37:02;;;;;;;83.72;61.75;;;;;;;2.65;100.00;99877.09;4982649;28;20030;-88
2021/12/04 02:39:32;;;;;;;86.23;63.77;;;;;;;2.89;100.00;99916.66;4982780;28;20081;-88
2021/12/04 02:41:57;;;;;;;85.03;62.90;;;;;;;2.71;100.00;99890.56;4982855;28;20037;-87
2021/12/04 02:44:37;;;;;;;83.50;62.20;;;;;;;2.91;100.00;99912.38;4983055;28;20034;-88
2021/12/04 02:47:03;;;;;;;84.90;63.85;;;;;;;2.72;100.00;99899.88;4980047;28;20022;-88
2021/12/04 02:49:29;;;;;;;92.32;64.88;;;;;;;2.65;100.00;99893.16;4964109;28;20022;-87
2021/12/04 02:51:54;;;;;;;82.60;62.97;;;;;;;2.90;100.00;99911.56;4994572;28;20030;-87
2021/12/04 02:54:19;;;;;;;87.70;63.10;;;;;;;2.84;100.00;99900.63;4983280;28;20018;-88
2021/12/04 02:56:45;;;;;;;83.80;64.63;;;;;;;2.84;100.00;99905.69;4999291;28;20034;-88
2021/12/04 02:59:12;;;;;;;81.20;62.87;;;;;;;2.81;100.00;99900.66;4978102;28;20034;-87
2021/12/04 03:01:39;;;;;;;81.05;61.88;;;;;;;2.73;100.00;99890.56;4964685;28;20111;-89
2021/12/04 03:04:10;;;;;;;79.30;61.60;;;;;;;2.76;100.00;99895.63;4997197;28;20072;-88
2021/12/04 03:06:45;;;;;;;92.95;65.30;;;;;;;2.83;100.00;99898.94;4979744;28;20068;-88
2021/12/04 03:09:11;;;;;;;82.35;63.20;;;;;;;2.78;100.00;99891.34;4980900;28;20013;-89
2021/12/04 03:11:37;;;;;;;89.10;64.30;;;;;;;2.97;100.00;99897.09;4980985;28;20042;-87
2021/12/04 03:14:03;;;;;;;90.28;65.88;;;;;;;2.83;100.00;99879.47;4980330;28;20019;-88
2021/12/04 03:16:28;;;;;;;88.82;64.32;;;;;;;2.77;100.00;99883.75;5005105;28;20019;-87
2021/12/04 03:18:53;;;;;;;99.70;65.67;;;;;;;2.75;100.00;99872.78;4985114;28;20010;-87
2021/12/04 03:21:19;;;;;;;88.40;64.63;;;;;;;2.82;100.00;99882.03;4977800;28;20227;-87
2021/12/04 03:23:57;;;;;;;84.57;63.43;;;;;;;2.86;100.00;99883.66;4959491;28;20037;-87
2021/12/04 03:26:24;;;;;;;94.88;65.30;;;;;;;2.87;100.00;99891.25;4978089;28;20114;-87
2021/12/04 03:28:50;;;;;;;;;;;;;;;2.86;100.00;99891.28;4980600;28;20007;-86
2021/12/04 03:32:17;;;;;;;90.30;63.95;;;;;;;2.86;100.00;99888.75;4971426;28;19906;-86
2021/12/04 03:42:14;;;;;;;99.07;67.88;;;;;;;2.86;100.00;99883.66;4994272;28;20050;-87
2021/12/04 03:44:40;;;;;;;94.23;66.13;;;;;;;2.75;100.00;99860.91;4962408;28;20015;-86
2021/12/04 03:47:07;;;;;;;100.13;65.78;;;;;;;2.80;100.00;99878.63;4962891;28;20019;-88
2021/12/04 03:49:32;;;;;;;95.15;66.35;;;;;;;2.83;100.00;99870.97;4981413;28;20045;-87
2021/12/04 03:51:58;;;;;;;94.57;68.43;;;;;;;2.73;100.00;99863.47;5013308;28;20031;-87
2021/12/04 03:54:23;;;;;;;93.37;66.87;;;;;;;2.67;100.00;99850.00;4978633;28;20038;-87
2021/12/04 03:56:51;;;;;;;93.50;66.83;;;;;;;2.76;100.00;99866.84;4977605;28;20042;-86
2021/12/04 03:59:18;;;;;;;101.55;68.50;;;;;;;2.75;100.00;99865.16;4978033;28;20114;-86
2021/12/04 04:01:44;;;;;;;106.05;70.80;;;;;;;2.76;100.00;99866.84;4981876;28;20026;-86
2021/12/04 04:04:09;;;;;;;105.27;70.80;;;;;;;2.77;100.00;99860.88;4983381;28;20017;-87
2021/12/04 04:06:34;;;;;;;100.37;69.00;;;;;;;2.68;100.00;99847.44;4975053;28;20049;-87
2021/12/04 04:09:02;;;;;;;110.53;70.73;;;;;;;2.69;100.00;99843.22;4994804;28;20030;-87
2021/12/04 04:11:27;;;;;;;108.47;70.63;;;;;;;2.71;100.00;99839.78;4966957;28;20034;-88
2021/12/04 04:13:52;;;;;;;109.00;70.37;;;;;;;2.69;100.00;99841.50;4977221;28;20054;-87
2021/12/04 04:16:18;;;;;;;100.57;70.37;;;;;;;2.63;100.00;99828.88;4977076;28;20030;-87
2021/12/04 04:18:43;;;;;;;105.00;69.17;;;;;;;2.72;100.00;99845.69;4984786;28;20094;-87
2021/12/04 04:21:08;;;;;;;101.37;68.43;;;;;;;2.75;100.00;99853.28;4983048;28;20018;-86
2021/12/04 04:23:34;;;;;;;109.33;70.00;;;;;;;2.76;100.00;99854.16;4984333;28;20082;-87
2021/12/04 04:25:59;;;;;;;100.50;68.70;;;;;;;2.72;100.00;99854.19;4983948;28;20070;-88
2021/12/04 04:28:24;;;;;;;107.27;70.93;;;;;;;2.66;100.00;99849.16;4984248;28;20090;-87
2021/12/04 04:30:50;;;;;;;104.47;68.47;;;;;;;2.70;100.00;99837.25;4978096;28;20046;-89
2021/12/04 04:33:15;;;;;;;93.83;68.90;;;;;;;2.76;100.00;99836.38;4987532;28;20033;-87
2021/12/04 04:35:44;;;;;;;110.20;69.22;;;;;;;2.75;100.00;99847.38;4987595;28;20014;-87
2021/12/04 04:39:12;;;;;;;120.20;72.95;;;;;;;2.55;100.00;99817.97;4987585;28;20014;-87
2021/12/04 05:00:16;;;;;;;92.50;66.30;;;;;;;2.75;100.00;99849.91;5012129;28;20022;-87
2021/12/04 05:13:39;;;;;;;91.18;65.28;;;;;;;2.78;100.00;99860.03;5013505;28;20049;-87
2021/12/04 05:16:12;;;;;;;89.18;66.07;;;;;;;2.76;100.00;99857.53;5003882;28;20022;-87
2021/12/04 05:18:43;;;;;;;94.18;65.43;;;;;;;2.82;100.00;99849.00;5016084;28;20026;-87
2021/12/04 05:21:12;;;;;;;90.43;66.00;;;;;;;2.75;100.00;99844.84;5005120;28;20030;-88
2021/12/04 05:23:41;;;;;;;90.45;65.70;;;;;;;2.60;100.00;99821.28;4991153;28;20022;-87
2021/12/04 05:26:09;;;;;;;94.57;65.38;;;;;;;2.85;100.00;99852.34;4992100;28;20165;-87
2021/12/04 05:28:35;;;;;;;93.10;65.88;;;;;;;2.77;100.00;99840.56;4989158;28;20116;-87
2021/12/04 05:31:00;;;;;;;89.30;63.37;;;;;;;2.81;100.00;99839.69;5000287;28;20030;-87
2021/12/04 05:33:26;;;;;;;88.43;63.22;;;;;;;2.83;100.00;99846.44;4989160;28;20528;-85
2021/12/04 05:35:52;;;;;;;86.20;64.23;;;;;;;2.85;100.00;99849.81;4989619;28;20045;-87
2021/12/04 05:38:18;;;;;;;86.93;63.47;;;;;;;2.82;100.00;99851.53;4972602;28;20039;-87
2021/12/04 05:40:44;;;;;;;80.13;61.25;;;;;;;2.82;100.00;99841.38;4998038;28;20089;-86
2021/12/04 05:43:10;;;;;;;84.85;63.47;;;;;;;2.80;100.00;99849.03;4992334;28;20022;-86
2021/12/04 05:45:43;;;;;;;;;;;;;;;2.85;100.00;99856.59;5010360;28;20026;-86
2021/12/04 05:51:13;;;;;;;89.40;65.47;;;;;;;2.85;100.00;99859.13;5009855;28;20452;-87
2021/12/04 05:53:54;;;;;;;83.93;65.03;;;;;;;2.83;100.00;99850.66;5003839;28;20042;-86
2021/12/04 05:56:20;;;;;;;82.05;63.13;;;;;;;2.77;100.00;99845.66;5004810;28;20018;-87
2021/12/04 05:58:46;;;;;;;;;;;;;;;2.85;100.00;99859.13;5002701;28;20018;-86
2021/12/04 06:01:13;;;;;;;87.53;64.57;;;;;;;2.75;100.00;99839.75;4995987;28;19929;-86
2021/12/04 06:03:38;;;;;;;88.82;65.70;;;;;;;2.83;100.00;99868.44;4995151;28;20031;-87
2021/12/04 06:06:04;;;;;;;90.53;63.73;;;;;;;2.85;100.00;99862.50;4985039;28;20038;-87
2021/12/04 06:08:29;;;;;;;90.47;65.90;;;;;;;2.81;100.00;99865.09;5008543;28;20022;-87
2021/12/04 06:10:55;;;;;;;86.97;64.50;;;;;;;2.93;100.00;99880.22;5008740;28;20030;-87
2021/12/04 06:13:21;;;;;;;84.68;63.65;;;;;;;2.79;100.00;99852.41;5007962;28;20023;-86
2021/12/04 06:15:47;;;;;;;90.50;64.50;;;;;;;2.79;100.00;99861.75;5012477;28;20044;-86
2021/12/04 06:18:15;;;;;;;91.23;66.47;;;;;;;2.70;100.00;99845.75;4986809;28;20037;-85
2021/12/04 06:23:25;;;;;;;89.05;64.28;;;;;;;2.86;100.00;99878.56;5020673;23;20030;-86
2021/12/04 06:25:50;;;;;;;85.10;63.53;;;;;;;2.75;100.00;99849.91;4998871;28;20011;-87
2021/12/04 06:28:17;;;;;;;89.20;64.77;;;;;;;2.90;100.00;99868.38;4979520;28;20035;-87
2021/12/04 06:30:43;;;;;;;;;;;;;;;2.84;100.00;99875.22;4964576;28;20341;-85
2021/12/04 06:33:10;;;;;;;85.63;63.20;;;;;;;2.77;100.00;99859.22;5004655;28;19950;-86
2021/12/04 06:35:40;;;;;;;83.20;63.20;;;;;;;2.87;100.00;99859.94;4999130;28;20029;-87
2021/12/04 06:38:06;;;;;;;90.47;63.72;;;;;;;2.75;100.00;99855.00;4990298;28;20034;-86
2021/12/04 06:40:31;;;;;;;;;;;;;;;2.85;100.00;99871.84;5001683;28;20026;-88
2021/12/04 06:43:00;;;;;;;79.53;61.80;;;;;;;2.76;100.00;99862.59;5016482;28;19972;-87
2021/12/04 06:45:29;;;;;;;83.00;61.70;;;;;;;2.75;100.00;99862.63;4995851;28;20105;-88
2021/12/04 06:48:01;;;;;;;84.05;62.25;;;;;;;2.66;100.00;99854.25;4990968;28;20033;-88
2021/12/04 06:50:41;;;;;;;90.90;63.75;;;;;;;2.83;100.00;99869.31;4993522;28;20054;-89
2021/12/04 06:53:38;;;;;;;89.30;61.67;;;;;;;2.71;100.00;99844.88;5016317;28;20030;-87
2021/12/04 06:56:06;;;;;;;77.63;62.10;;;;;;;2.81;100.00;99860.84;4984826;28;20046;-89
2021/12/04 06:58:31;;;;;;;78.72;62.83;;;;;;;2.79;100.00;99861.75;5013585;28;20022;-88
2021/12/04 07:00:57;;;;;;;112.23;69.03;;;;;;;2.81;100.00;99854.94;4998351;28;20101;-89
2021/12/04 07:03:22;;;;;;;86.10;61.70;;;;;;;2.86;100.00;99869.28;4996048;28;20007;-89
2021/12/04 07:05:48;;;;;;;77.13;62.10;;;;;;;2.66;100.00;99841.53;5016857;28;20021;-89
2021/12/04 07:08:16;;;;;;;84.10;63.00;;;;;;;2.78;100.00;99844.81;5000387;28;20115;-87
2021/12/04 07:10:42;;;;;;;79.28;61.30;;;;;;;2.71;100.00;99852.47;4995926;28;20058;-88
2021/12/04 07:13:08;;;;;;;75.90;59.38;;;;;;;2.70;100.00;99843.19;5003258;28;20026;-87
2021/12/04 07:15:33;;;;;;;79.67;62.43;;;;;;;2.77;100.00;99854.13;4992209;28;20098;-89
2021/12/04 07:18:00;;;;;;;76.00;60.50;;;;;;;2.82;100.00;99856.63;5015081;28;20023;-88
2021/12/04 07:20:26;;;;;;;73.50;59.28;;;;;;;2.80;100.00;99858.31;5013373;28;20166;-88
2021/12/04 07:22:51;;;;;;;72.13;59.80;;;;;;;2.81;100.00;99862.56;4998223;28;20160;-88
2021/12/04 07:25:20;;;;;;;75.43;60.17;;;;;;;2.83;100.00;99864.22;5009748;28;20019;-88
2021/12/04 07:27:50;;;;;;;68.85;57.92;;;;;;;2.76;100.00;99832.13;4995355;28;20003;-89
2021/12/04 07:30:20;;;;;;;78.78;59.92;;;;;;;2.84;100.00;99862.53;4975198;28;20030;-89
2021/12/04 07:32:50;;;;;;;73.22;58.17;;;;;;;2.83;100.00;99853.22;4985471;28;20031;-89
2021/12/04 07:35:15;;;;;;;66.72;59.25;;;;;;;2.91;100.00;99861.56;4987103;28;20046;-88
2021/12/04 07:37:41;;;;;;;65.97;57.63;;;;;;;2.89;100.00;99863.31;4973357;28;20122;-88
2021/12/04 07:40:08;;;;;;;71.75;58.05;;;;;;;2.90;100.00;99860.75;4996607;28;20038;-87
2021/12/04 07:42:36;;;;;;;69.15;59.65;;;;;;;2.92;100.00;99858.19;5013817;28;20072;-87
2021/12/04 07:45:07;;;;;;;73.70;58.17;;;;;;;2.78;100.00;99839.72;5013171;28;20037;-88
2021/12/04 07:47:32;;;;;;;66.65;57.60;;;;;;;2.83;100.00;99840.50;4982356;28;20027;-87
2021/12/04 07:49:58;;;;;;;69.32;58.00;;;;;;;2.84;100.00;99839.66;4977086;28;20025;-88
2021/12/04 07:52:26;;;;;;;72.77;57.47;;;;;;;2.84;100.00;99849.81;4985096;28;20101;-88
2021/12/04 07:54:52;;;;;;;68.93;59.25;;;;;;;2.92;100.00;99842.13;4994166;28;20038;-88
2021/12/04 07:57:18;;;;;;;69.32;57.63;;;;;;;2.79;100.00;99819.38;5000766;28;20026;-88
2021/12/04 07:59:46;;;;;;;67.53;57.45;;;;;;;3.00;100.00;99831.00;5001310;28;20054;-86
2021/12/04 08:02:12;;;;;;;68.43;57.85;;;;;;;2.81;100.00;99819.38;5000546;28;20069;-88
2021/12/04 08:04:38;;;;;;;68.45;57.78;;;;;;;2.83;100.00;99833.75;4981926;28;20026;-89
2021/12/04 08:07:06;;;;;;;68.53;57.73;;;;;;;2.85;100.00;99833.72;5025065;28;20026;-89
2021/12/04 08:09:32;;;;;;;66.93;57.10;;;;;;;2.93;100.00;99852.25;4990470;28;20030;-89
2021/12/04 08:11:57;;;;;;;66.63;57.30;;;;;;;2.99;100.00;99848.78;5006850;28;20025;-87
2021/12/04 08:14:22;;;;;;;67.20;57.33;;;;;;;2.87;100.00;99849.78;4985450;28;20034;-88
2021/12/04 08:16:51;;;;;;;75.17;59.13;;;;;;;2.92;100.00;99862.44;4985346;28;20447;-88
2021/12/04 08:19:16;;;;;;;64.13;56.97;;;;;;;2.92;100.00;99850.56;5008730;28;20030;-88
2021/12/04 08:21:41;;;;;;;78.27;60.43;;;;;;;2.98;100.00;99865.75;4990320;28;20033;-87
2021/12/04 08:24:10;;;;;;;66.53;57.43;;;;;;;2.97;100.00;99866.59;4998353;28;20037;-87
2021/12/04 08:26:37;;;;;;;68.72;57.75;;;;;;;2.94;100.00;99850.56;4990405;28;20511;-87
2021/12/04 08:29:03;;;;;;;67.15;57.88;;;;;;;2.98;100.00;99873.38;4989948;28;20034;-89
2021/12/04 08:31:29;;;;;;;73.55;57.92;;;;;;;2.87;100.00;99872.66;4991499;28;20050;-89
2021/12/04 08:33:54;;;;;;;69.83;57.53;;;;;;;2.91;100.00;99864.13;5007790;28;20099;-89
2021/12/04 08:36:22;;;;;;;72.63;59.60;;;;;;;2.96;100.00;99875.09;4991908;28;20056;-89
2021/12/04 08:38:51;;;;;;;75.82;58.90;;;;;;;3.04;100.00;99873.31;4987312;28;20041;-87
2021/12/04 08:41:18;;;;;;;72.25;58.03;;;;;;;2.97;100.00;99856.44;4988999;28;20034;-88
2021/12/04 08:43:46;;;;;;;80.28;60.50;;;;;;;3.09;100.00;99876.63;5006065;28;20089;-89
2021/12/04 08:46:14;;;;;;;74.63;60.35;;;;;;;3.06;100.00;99876.66;4990886;28;20022;-88
2021/12/04 08:48:39;;;;;;;74.00;59.80;;;;;;;2.97;100.00;99851.34;4990179;28;20026;-88
2021/12/04 08:51:05;;;;;;;66.63;57.40;;;;;;;3.00;100.00;99866.56;4985987;28;20023;-89
2021/12/04 08:53:30;;;;;;;73.93;58.73;;;;;;;2.99;100.00;99862.34;5027189;28;20023;-88
2021/12/04 08:55:56;;;;;;;74.27;58.70;;;;;;;3.02;100.00;99854.69;4992518;28;20100;-88
2021/12/04 08:58:21;;;;;;;72.70;59.60;;;;;;;3.00;100.00;99861.47;4999917;28;20057;-87
2021/12/04 09:00:57;;;;;;;68.40;58.03;;;;;;;3.05;100.00;99875.00;4992147;28;20073;-88
2021/12/04 09:03:30;;;;;;;71.50;57.58;;;;;;;3.08;100.00;99869.84;4994376;28;20027;-88
2021/12/04 09:05:56;;;;;;;75.95;60.30;;;;;;;3.06;100.00;99856.34;5000378;28;20094;-87
2021/12/04 09:08:23;;;;;;;76.38;59.53;;;;;;;3.06;100.00;99871.56;5012274;28;20033;-88
2021/12/04 09:10:49;;;;;;;69.68;58.72;;;;;;;3.06;100.00;99868.19;4995985;28;20033;-87
2021/12/04 09:13:17;;;;;;;;;;;;;;;2.97;100.00;99858.13;5003337;28;20014;-87
2021/12/04 09:15:43;;;;;;;79.32;60.08;;;;;;;3.00;100.00;99846.22;5005059;28;19925;-86
2021/12/04 09:18:09;;;;;;;87.70;60.47;;;;;;;3.00;100.00;99843.69;4998757;28;20038;-87
2021/12/04 09:20:34;;;;;;;74.70;59.07;;;;;;;2.91;100.00;99861.56;4998111;28;20027;-88
2021/12/04 09:23:05;;;;;;;79.37;60.23;;;;;;;3.02;100.00;99856.38;4996093;28;20030;-87
2021/12/04 09:25:33;;;;;;;76.82;58.97;;;;;;;3.04;100.00;99858.06;4987490;28;20114;-88
2021/12/04 09:31:00;;;;;;;76.28;59.60;;;;;;;2.77;100.00;99817.72;4990599;28;20018;-87
2021/12/04 10:01:14;;;;;;;78.25;58.50;;;;;;;2.71;100.00;99823.72;4999012;28;20037;-89
2021/12/04 10:14:49;;;;;;;82.07;61.08;;;;;;;2.87;100.00;99815.06;5017290;28;20053;-89
2021/12/04 10:17:35;;;;;;;82.32;60.78;;;;;;;2.98;100.00;99814.94;4996652;28;20117;-88
2021/12/04 10:23:21;;;;;;;78.13;60.53;;;;;;;3.13;100.00;99810.53;5015248;28;20058;-88
2021/12/04 10:34:04;;;;;;;78.85;59.95;;;;;;;3.06;100.00;99808.06;5000505;28;20169;-87
2021/12/04 10:36:39;;;;;;;76.37;59.80;;;;;;;3.03;100.00;99810.63;4983372;28;20307;-89
2021/12/04 10:39:10;;;;;;;74.50;58.30;;;;;;;2.90;100.00;99763.38;4978763;28;20026;-89
2021/12/04 10:41:47;;;;;;;78.53;60.85;;;;;;;3.00;100.00;99777.63;4991279;28;20026;-88
2021/12/04 10:44:23;;;;;;;71.65;57.25;;;;;;;3.36;100.00;99803.44;4992892;28;20022;-88
2021/12/04 10:47:12;;;;;;;76.78;60.42;;;;;;;2.86;100.00;99789.66;4990652;28;20023;-90
2021/12/04 10:55:19;;;;;;;82.35;60.78;;;;;;;3.09;100.00;99795.31;4987223;28;20102;-89
2021/12/04 11:00:36;;;;;;;79.57;59.70;;;;;;;3.15;100.00;99784.25;5014712;28;20023;-88
2021/12/04 11:03:17;;;;;;;74.38;58.47;;;;;;;3.08;100.00;99760.59;5000462;28;20014;-86
2021/12/04 11:06:37;;;;;;;87.68;60.80;;;;;;;3.18;100.00;99776.56;4997969;28;20026;-87
2021/12/04 11:36:23;;;;;;;72.95;58.78;;;;;;;3.26;100.00;99766.28;5024142;28;20029;-88
2021/12/04 11:39:04;;;;;;;78.45;58.65;;;;;;;3.33;100.00;99761.97;4996830;28;20023;-87
2021/12/04 11:44:47;;;;;;;66.53;56.47;;;;;;;3.30;100.00;99747.59;4995629;28;20029;-88
2021/12/04 11:47:13;;;;;;;68.18;57.08;;;;;;;3.20;100.00;99718.09;4984510;28;20026;-87
2021/12/04 11:49:38;;;;;;;77.13;57.83;;;;;;;3.41;100.00;99742.34;4997972;28;20021;-88
2021/12/04 11:52:19;;;;;;;70.33;57.57;;;;;;;3.45;100.00;99738.88;4996537;28;20046;-89
2021/12/04 11:54:56;;;;;;;67.10;57.17;;;;;;;3.50;100.00;99721.03;4996044;28;20034;-88
2021/12/04 11:57:34;;;;;;;71.88;58.08;;;;;;;3.43;100.00;99715.19;5008864;28;20052;-87
2021/12/04 12:00:28;;;;;;;67.10;56.72;;;;;;;3.39;100.00;99734.75;4992231;28;20049;-87
2021/12/04 12:03:12;;;;;;;73.43;58.05;;;;;;;3.32;100.00;99710.28;4976505;28;20034;-89
2021/12/04 12:05:58;;;;;;;65.70;55.85;;;;;;;3.49;100.00;99737.16;4971963;28;20050;-87
2021/12/04 12:08:29;;;;;;;75.22;58.60;;;;;;;3.48;100.00;99726.13;4999584;28;20037;-89
2021/12/04 12:11:26;;;;;;;75.93;58.92;;;;;;;3.28;100.00;99723.91;4990096;28;20022;-89
2021/12/04 12:13:59;;;;;;;79.53;59.53;;;;;;;3.25;100.00;99726.50;5007443;28;20037;-89
2021/12/04 12:16:31;;;;;;;67.90;56.80;;;;;;;3.38;100.00;99725.44;5126414;23;20114;-88
2021/12/04 12:19:09;;;;;;;80.13;60.38;;;;;;;3.14;100.00;99702.94;4968502;28;20520;-87
2021/12/04 12:38:31;;;;;;;76.30;59.10;;;;;;;3.21;100.00;99727.38;4947981;29;20123;-88
2021/12/04 12:41:11;;;;;;;74.80;60.08;;;;;;;3.33;100.00;99741.63;4925419;29;20031;-87
2021/12/04 12:43:45;;;;;;;65.82;56.83;;;;;;;3.48;100.00;99743.94;4979036;28;20034;-89
2021/12/04 12:46:11;;;;;;;73.35;57.80;;;;;;;3.17;100.00;99713.06;4964212;28;20098;-89
2021/12/04 12:48:53;;;;;;;74.15;57.47;;;;;;;3.32;100.00;99722.97;4953794;28;20374;-87
2021/12/04 12:51:30;;;;;;;72.22;57.65;;;;;;;3.24;100.00;99738.34;4941722;29;20031;-88
2021/12/04 12:53:59;;;;;;;76.53;58.90;;;;;;;2.92;100.00;99674.47;4959979;28;20121;-88
2021/12/04 12:56:27;;;;;;;72.90;57.47;;;;;;;2.89;100.00;99665.19;4952926;29;20474;-87
2021/12/04 12:59:20;;;;;;;63.17;55.38;;;;;;;3.06;100.00;99667.47;4963023;29;20083;-87
2021/12/04 13:13:37;;;;;;;75.00;58.92;;;;;;;3.37;100.00;99688.19;4960175;29;20037;-88
2021/12/04 13:16:18;;;;;;;65.30;55.78;;;;;;;3.37;100.00;99683.09;4945119;28;20034;-89
2021/12/04 13:18:52;;;;;;;70.88;58.33;;;;;;;3.37;100.00;99689.88;4960746;28;20095;-89
2021/12/04 13:21:18;;;;;;;69.90;57.97;;;;;;;3.30;100.00;99686.59;4961005;28;20027;-90
2021/12/04 13:23:52;;;;;;;73.63;58.67;;;;;;;3.32;100.00;99659.44;4929309;29;20039;-90
2021/12/04 13:26:18;;;;;;;80.03;60.17;;;;;;;3.24;100.00;99668.88;4937895;28;20047;-90
2021/12/04 13:28:46;;;;;;;86.05;59.95;;;;;;;3.28;100.00;99652.75;4963267;28;20016;-88
2021/12/04 13:31:12;;;;;;;75.45;59.03;;;;;;;3.23;100.00;99649.41;4947214;28;20015;-89
2021/12/04 13:33:41;;;;;;;69.97;57.70;;;;;;;3.35;100.00;99659.38;4953580;29;20390;-88
2021/12/04 13:36:22;;;;;;;80.38;60.15;;;;;;;3.16;100.00;99658.00;4953064;29;20316;-88
2021/12/04 13:39:15;;;;;;;77.28;59.20;;;;;;;2.98;100.00;99639.66;4937744;29;20450;-88
2021/12/04 13:41:43;;;;;;;73.72;58.08;;;;;;;3.09;100.00;99630.16;4925298;29;20027;-88
2021/12/04 13:44:14;;;;;;;80.43;60.72;;;;;;;3.29;100.00;99651.84;4935851;29;20034;-87
2021/12/04 13:46:41;;;;;;;73.63;59.38;;;;;;;3.23;100.00;99644.31;4945822;28;20036;-88
2021/12/04 13:49:13;;;;;;;75.38;60.30;;;;;;;3.34;100.00;99645.03;4945366;28;20046;-88
2021/12/04 13:51:40;;;;;;;74.45;58.90;;;;;;;3.42;100.00;99649.94;4959218;28;20028;-89
2021/12/04 13:54:06;;;;;;;75.78;58.15;;;;;;;3.20;100.00;99624.91;4943866;28;20027;-90
2021/12/04 13:56:32;;;;;;;;;;;;;;;3.37;100.00;99634.81;4958815;28;20141;-89
2021/12/04 13:59:00;;;;;;;81.25;60.08;;;;;;;3.39;100.00;99638.16;4946287;28;19998;-89
2021/12/04 14:01:28;;;;;;;86.80;60.80;;;;;;;3.34;99.77;99606.91;4961215;28;20020;-89
2021/12/04 14:03:58;;;;;;;74.45;58.42;;;;;;;3.27;99.46;99590.06;4935754;28;20046;-87
2021/12/04 14:06:24;;;;;;;68.20;56.28;;;;;;;3.29;100.00;99600.19;4944241;29;20031;-87
2021/12/04 14:08:58;;;;;;;71.25;58.22;;;;;;;3.25;99.89;99610.41;4951535;29;20058;-87
2021/12/04 14:11:28;;;;;;;72.10;57.38;;;;;;;3.40;99.71;99641.53;4952323;29;20418;-88
2021/12/04 14:13:54;;;;;;;72.53;57.63;;;;;;;3.34;99.78;99645.03;4952951;29;20023;-88
2021/12/04 14:16:23;;;;;;;75.27;59.20;;;;;;;2.89;100.00;99588.97;4948875;29;20038;-88
2021/12/04 14:18:49;;;;;;;76.50;58.00;;;;;;;3.17;100.00;99601.25;4917886;29;20024;-87
2021/12/04 14:21:15;;;;;;;61.73;54.67;;;;;;;3.22;100.00;99607.09;4950462;29;20038;-88